»·PEaware :: DAL2378 KSAN-KSLC

DAL2378 :: KSAN-KSLC

FLIGHT INFORMATION

Flight Status: Arrived
Operator:
Delta Air Lines
More flights by this operator :: More flights under this callsign
Pilot: Patricio R. (14780)
Aircraft: AIRBUS A320
(A320)
More flights by this aircraft type
Origin: KSAN San Diego Intl-Lindbergh
United States
Destination: KSLC Salt Lake City Intl
United States
More flights between these airports :: More routes between these airports
Route: +ZZOOO2 MTBAL AVRRY CADEZ HAKMN Q73 LAKRR MLF QWENN5
File this flight plan on PilotEdge
Remarks:
Altitude:
(Current/Filed)
35,000ft
Speed:
(Current/Filed)
438kts
Departed: 17-Aug-18 01:01 PM
Arrived: 17-Aug-18 02:28 PM
Distance/Time
Traveled:
544nm/1:27
Distance/Time
To Go:
Arrived

Flight Plot

Page will automatically refresh every two minutes.

Flight plan parsing failed; only flown route is shown


Map Options




Map Legend


Flown Route
Filed Route
Departure Airport
Arrival Airport
Navaid (VOR, NDB)
Fix

Horizontal Profiles

Position Reports

Time Latitude Longitude Heading Altitude Ground
Speed
17-Aug-18 12:35 32.733356 -117.203537 269 19ft 0kts
17-Aug-18 12:36 32.733356 -117.203537 269 19ft 0kts
17-Aug-18 12:37 32.733356 -117.203537 269 19ft 0kts
17-Aug-18 12:38 32.733356 -117.203537 269 19ft 0kts
17-Aug-18 12:39 32.733356 -117.203537 269 19ft 0kts
17-Aug-18 12:40 32.733356 -117.203537 269 19ft 0kts
17-Aug-18 12:41 32.733356 -117.203537 269 19ft 0kts
17-Aug-18 12:42 32.733356 -117.203537 269 19ft 0kts
17-Aug-18 12:43 32.733356 -117.203537 269 19ft 0kts
17-Aug-18 12:44 32.733356 -117.203537 269 19ft 0kts
17-Aug-18 12:45 32.733356 -117.203537 269 19ft 0kts
17-Aug-18 12:46 32.733356 -117.203537 269 19ft 0kts
17-Aug-18 12:47 32.733356 -117.203537 269 19ft 0kts
17-Aug-18 12:48 32.733356 -117.203537 269 19ft 0kts
17-Aug-18 12:49 32.733356 -117.203537 269 19ft 0kts
17-Aug-18 12:50 32.733356 -117.203537 269 19ft 0kts
17-Aug-18 12:51 32.733356 -117.203537 269 19ft 0kts
17-Aug-18 12:52 32.733357 -117.203169 269 19ft 2kts
17-Aug-18 12:53 32.733186 -117.202584 342 19ft 0kts
17-Aug-18 12:54 32.733115 -117.202564 345 19ft 0kts
17-Aug-18 12:55 32.733468 -117.202672 345 19ft 0kts
17-Aug-18 12:56 32.733766 -117.202747 355 19ft 9kts
17-Aug-18 12:57 32.734891 -117.199470 106 22ft 16kts
17-Aug-18 12:58 32.733508 -117.193731 106 22ft 19kts
17-Aug-18 12:59 32.731941 -117.187295 107 22ft 19kts
17-Aug-18 13:00 32.730343 -117.180694 106 21ft 20kts
17-Aug-18 13:01 32.729679 -117.175851 56 27ft 9kts
17-Aug-18 13:02 32.737017 -117.202566 286 735ft 172kts
17-Aug-18 13:03 32.751616 -117.262653 284 3662ft 229kts
17-Aug-18 13:04 32.727674 -117.329778 191 6591ft 273kts
17-Aug-18 13:05 32.664778 -117.287349 133 10037ft 287kts
17-Aug-18 13:06 32.631187 -117.199206 75 12269ft 339kts
17-Aug-18 13:07 32.691767 -117.113831 44 15101ft 358kts
17-Aug-18 13:08 32.763914 -117.030645 44 17695ft 372kts
17-Aug-18 13:09 32.838517 -116.944014 44 19997ft 385kts
17-Aug-18 13:10 32.915579 -116.854226 44 22078ft 397kts
17-Aug-18 13:11 32.994856 -116.761616 44 23958ft 408kts
17-Aug-18 13:12 33.077054 -116.665317 44 25604ft 421kts
17-Aug-18 13:13 33.156692 -116.571770 44 27037ft 431kts
17-Aug-18 13:14 33.246406 -116.475477 29 28364ft 443kts
17-Aug-18 13:15 33.354952 -116.407259 27 29698ft 449kts
17-Aug-18 13:16 33.465125 -116.337712 27 30844ft 458kts
17-Aug-18 13:17 33.576655 -116.267014 27 32306ft 455kts
17-Aug-18 13:18 33.686468 -116.197168 27 33513ft 456kts
17-Aug-18 13:19 33.797906 -116.126091 27 34700ft 455kts
17-Aug-18 13:20 33.908933 -116.055062 27 34976ft 452kts
17-Aug-18 13:21 34.013686 -115.987845 27 35150ft 454kts
17-Aug-18 13:22 34.123760 -115.917012 27 35164ft 453kts
17-Aug-18 13:23 34.231936 -115.847203 27 35146ft 452kts
17-Aug-18 13:24 34.341708 -115.776146 27 35139ft 453kts
17-Aug-18 13:25 34.451658 -115.704758 27 35153ft 455kts
17-Aug-18 13:26 34.562637 -115.632485 27 35179ft 456kts
17-Aug-18 13:27 34.673350 -115.560174 27 35194ft 457kts
17-Aug-18 13:28 34.765403 -115.499873 26 35184ft 458kts
17-Aug-18 13:29 34.895721 -115.414248 26 35047ft 457kts
17-Aug-18 13:30 35.006961 -115.340909 27 35034ft 457kts
17-Aug-18 13:31 35.114854 -115.269561 27 35007ft 456kts
17-Aug-18 13:32 35.224832 -115.196610 27 34996ft 456kts
17-Aug-18 13:33 35.317416 -115.135021 26 34992ft 457kts
17-Aug-18 13:34 35.428148 -115.061142 26 35012ft 459kts
17-Aug-18 13:35 35.539926 -114.986335 26 35110ft 460kts
17-Aug-18 13:36 35.670698 -114.898509 26 35114ft 460kts
17-Aug-18 13:37 35.763973 -114.835662 26 35108ft 460kts
17-Aug-18 13:38 35.876177 -114.759840 25 35078ft 462kts
17-Aug-18 13:39 35.988681 -114.683569 26 35109ft 464kts
17-Aug-18 13:40 36.101259 -114.606992 26 35116ft 464kts
17-Aug-18 13:41 36.213313 -114.530520 26 35095ft 463kts
17-Aug-18 13:42 36.325977 -114.453377 25 35057ft 464kts
17-Aug-18 13:43 36.438737 -114.375903 25 35067ft 465kts
17-Aug-18 13:44 36.551337 -114.298293 26 35079ft 466kts
17-Aug-18 13:45 36.664429 -114.220069 26 35173ft 465kts
17-Aug-18 13:46 36.777361 -114.141695 25 35158ft 465kts
17-Aug-18 13:47 36.890359 -114.063009 25 35142ft 467kts
17-Aug-18 13:48 37.003512 -113.983942 25 35157ft 468kts
17-Aug-18 13:49 37.116713 -113.904575 25 35164ft 468kts
17-Aug-18 13:50 37.229616 -113.825139 25 35160ft 468kts
17-Aug-18 13:51 37.342953 -113.745119 25 35135ft 469kts
17-Aug-18 13:52 37.456473 -113.664688 25 35160ft 469kts
17-Aug-18 13:53 37.569501 -113.584327 25 35177ft 468kts
17-Aug-18 13:54 37.682822 -113.503473 25 35318ft 469kts
17-Aug-18 13:55 37.795970 -113.422454 25 35311ft 469kts
17-Aug-18 13:56 37.909180 -113.341103 25 35309ft 471kts
17-Aug-18 13:57 38.022350 -113.259488 25 35315ft 471kts
17-Aug-18 13:58 38.135293 -113.177746 26 35305ft 470kts
17-Aug-18 13:59 38.247884 -113.095965 26 35297ft 470kts
17-Aug-18 14:00 38.360555 -113.014498 22 35287ft 469kts
17-Aug-18 14:01 38.479868 -112.949637 18 35228ft 467kts
17-Aug-18 14:02 38.599141 -112.885902 18 35230ft 467kts
17-Aug-18 14:03 38.718410 -112.821954 18 34700ft 462kts
17-Aug-18 14:04 38.835117 -112.759174 18 32889ft 453kts
17-Aug-18 14:05 38.949840 -112.697217 19 30812ft 445kts
17-Aug-18 14:06 39.062400 -112.636218 20 28713ft 436kts
17-Aug-18 14:07 39.155017 -112.585868 20 26983ft 427kts
17-Aug-18 14:08 39.260147 -112.528537 20 24987ft 416kts
17-Aug-18 14:09 39.363568 -112.470560 21 23337ft 395kts
17-Aug-18 14:10 39.460933 -112.414570 21 21985ft 375kts
17-Aug-18 14:11 39.555263 -112.360239 22 20678ft 367kts
17-Aug-18 14:12 39.647113 -112.307207 23 19417ft 360kts
17-Aug-18 14:13 39.737459 -112.254901 23 18179ft 352kts
17-Aug-18 14:14 39.825288 -112.203905 23 16982ft 343kts
17-Aug-18 14:15 39.911298 -112.153828 23 15816ft 335kts
17-Aug-18 14:16 39.995019 -112.104653 24 14669ft 329kts
17-Aug-18 14:17 40.076875 -112.055129 24 13537ft 321kts
17-Aug-18 14:18 40.154992 -112.007847 24 12455ft 316kts
17-Aug-18 14:19 40.233606 -111.960128 24 11353ft 311kts
17-Aug-18 14:20 40.316294 -111.935986 4 11053ft 308kts
17-Aug-18 14:21 40.394506 -111.929322 355 11075ft 256kts
17-Aug-18 14:22 40.464240 -111.936986 355 10956ft 253kts
17-Aug-18 14:23 40.534537 -111.945355 353 9448ft 250kts
17-Aug-18 14:24 40.600048 -111.952830 353 7803ft 215kts
17-Aug-18 14:25 40.649736 -111.958641 353 6693ft 156kts
17-Aug-18 14:26 40.691373 -111.963449 353 5899ft 150kts
17-Aug-18 14:27 40.731883 -111.968151 354 5104ft 144kts
17-Aug-18 14:28 40.772668 -111.972910 354 4297ft 153kts
17-Aug-18 14:29 40.795266 -111.976408 325 4236ft 19kts
17-Aug-18 14:30 40.791842 -111.977297 174 4236ft 17kts
17-Aug-18 14:31 40.789659 -111.979045 261 4236ft 9kts
17-Aug-18 14:32 40.788470 -111.980560 283 4236ft 2kts
17-Aug-18 14:33 40.788507 -111.980772 283 4236ft 0kts

Navigation Log

Ident Type
Flight plan parsing failed, navigation log unavailable